Temp: 19.1°C   Baro: 1012.3mb
  Wind: 4.0mph   Dir: WNW (284°)
  Rain: 0.0mm (0.0mm/hr)
  Solar: 69W/m2  Hum: 61%
 
Bath Spa Weather Station Historical Data
Daily Summary for April 25, 2020 Units:  Metric    English   Both
Daily Weekly Monthly Yearly Custom
  High: Low: Average:
Temperature: 20.6 °C 14.8 °C 17.2 °C
Dew Point: 16.8 °C 12.8 °C 14.3 °C
Humidity: 93.2% 67.4% 83%
Wind Speed: 38.9km/h 1km/h 17.4km/h
Wind Gust: 66km/h - -
Wind- - SW
Pressure: 1010 hPa 995.5 hPa -
Precipitation: 19.3 mm    
Historical Graphs
 
 
Tabular Data for April 25, 2020
Time Temperature Dew Point Pressure Wind Wind Speed Wind Gust Humidity Rainfall Rate (Hourly) solar
00:04 16.7 °C 14.9 °C 1010 hPa South 1.9 km/h 6.4 km/h 89% 0.51 mm 0 W/m2
00:09 16.7 °C 14.9 °C 1009.7 hPa South 3.2 km/h 8 km/h 89% 0.51 mm 0 W/m2
00:14 16.7 °C 15 °C 1009.7 hPa South 1.6 km/h 8 km/h 89.8% 0.51 mm 0 W/m2
00:19 16.7 °C 15.1 °C 1009.4 hPa SE 1 km/h 4.8 km/h 90% 0.51 mm 0 W/m2
00:24 16.7 °C 15.1 °C 1009.4 hPa SE 1.3 km/h 4.8 km/h 90% 0.76 mm 0 W/m2
00:29 16.6 °C 15 °C 1009 hPa South 2.3 km/h 6.4 km/h 90% 0.76 mm 0 W/m2
00:34 16.6 °C 15 °C 1009 hPa SSE 3.5 km/h 9.7 km/h 90% 0.76 mm 0 W/m2
00:39 16.5 °C 14.9 °C 1009 hPa South 4.8 km/h 9.7 km/h 90.6% 0.76 mm 0 W/m2
00:44 16.4 °C 14.9 °C 1009 hPa South 5 km/h 11.3 km/h 91% 0.76 mm 0 W/m2
00:48 16.4 °C 14.9 °C 1008.7 hPa South 4 km/h 8 km/h 91% 1.02 mm 0 W/m2
00:54 16.4 °C 14.9 °C 1008.7 hPa South 3.4 km/h 8 km/h 91% 1.02 mm 0 W/m2
00:59 16.4 °C 14.9 °C 1008.7 hPa South 4.2 km/h 9.7 km/h 91% 0.76 mm 0 W/m2
01:04 16.4 °C 14.9 °C 1008.4 hPa SSE 4.8 km/h 12.9 km/h 91% 0.76 mm 0 W/m2
01:09 16.3 °C 14.9 °C 1008.4 hPa SSE 4.8 km/h 11.3 km/h 91.4% 0.51 mm 0 W/m2
01:14 16.3 °C 15 °C 1008 hPa SSE 5.1 km/h 9.7 km/h 91.8% 0.51 mm 0 W/m2
01:19 16.3 °C 15 °C 1008 hPa SSE 7.1 km/h 14.5 km/h 92% 0.51 mm 0 W/m2
01:24 16.3 °C 15 °C 1008 hPa SSE 6 km/h 11.3 km/h 92% 0.51 mm 0 W/m2
01:29 16.3 °C 15 °C 1007.7 hPa SSE 3.9 km/h 11.3 km/h 92% 0.51 mm 0 W/m2
01:34 16.3 °C 15 °C 1007.7 hPa SSE 5.1 km/h 16.1 km/h 92% 0.51 mm 0 W/m2
01:39 16.3 °C 15 °C 1007.7 hPa SSE 4 km/h 11.3 km/h 92% 0.51 mm 0 W/m2
01:44 16.3 °C 15 °C 1007.7 hPa SSE 4.5 km/h 9.7 km/h 92% 0.51 mm 0 W/m2
01:49 16.2 °C 14.9 °C 1007.3 hPa SSE 4.5 km/h 12.9 km/h 92% 0.51 mm 0 W/m2
01:54 16.2 °C 14.9 °C 1007.3 hPa SSE 5 km/h 11.3 km/h 92% 0.51 mm 0 W/m2
01:59 16.2 °C 15.1 °C 1007 hPa SSE 5.6 km/h 11.3 km/h 92.8% 0.76 mm 0 W/m2
02:04 16.2 °C 15.1 °C 1007 hPa SSE 4.2 km/h 11.3 km/h 93% 1.02 mm 0 W/m2
02:09 16.2 °C 15.1 °C 1007 hPa SSE 4 km/h 17.7 km/h 93% 1.52 mm 0 W/m2
02:14 16.2 °C 15.1 °C 1006.7 hPa SSE 6.1 km/h 17.7 km/h 93% 1.52 mm 0 W/m2
02:19 16.2 °C 15.1 °C 1006.7 hPa SSE 7.4 km/h 12.9 km/h 93% 1.78 mm 0 W/m2
02:24 16.2 °C 15.1 °C 1006.3 hPa SSE 4.7 km/h 11.3 km/h 93% 2.03 mm 0 W/m2
02:29 16.1 °C 15 °C 1006.3 hPa SSE 5.5 km/h 12.9 km/h 93% 2.29 mm 0 W/m2
02:34 16.1 °C 15 °C 1006.3 hPa SE 6.4 km/h 12.9 km/h 93% 3.05 mm 0 W/m2
02:39 16.1 °C 15 °C 1006 hPa SSE 7.9 km/h 17.7 km/h 93% 3.3 mm 0 W/m2
02:44 16.1 °C 15 °C 1006 hPa SSE 6.4 km/h 14.5 km/h 93% 3.3 mm 0 W/m2
02:49 16.1 °C 15 °C 1006 hPa SSE 8.7 km/h 17.7 km/h 93% 3.56 mm 0 W/m2
02:54 16.1 °C 15 °C 1006 hPa SSE 4.2 km/h 17.7 km/h 93.2% 4.06 mm 0 W/m2
02:59 16.1 °C 15 °C 1005.6 hPa South 3.9 km/h 11.3 km/h 93% 4.32 mm 0 W/m2
03:04 16.1 °C 15 °C 1005.6 hPa South 4.2 km/h 14.5 km/h 93% 5.08 mm 0 W/m2
03:09 16.1 °C 15 °C 1005.6 hPa SW 9.7 km/h 29 km/h 93% 5.08 mm 0 W/m2
03:14 16.1 °C 15 °C 1005.6 hPa South 10.9 km/h 29 km/h 93% 5.08 mm 0 W/m2
03:19 16 °C 14.9 °C 1005.3 hPa South 9.3 km/h 29 km/h 93% 4.83 mm 0 W/m2
03:24 15.9 °C 14.8 °C 1005.3 hPa SSW 9 km/h 24.1 km/h 93% 4.83 mm 0 W/m2
03:29 15.9 °C 14.8 °C 1005.3 hPa SSW 9.8 km/h 22.5 km/h 93% 4.57 mm 0 W/m2
03:34 15.8 °C 14.7 °C 1005 hPa SSW 3.9 km/h 17.7 km/h 93% 4.32 mm 0 W/m2
03:39 15.8 °C 14.7 °C 1005 hPa SSW 8.4 km/h 19.3 km/h 93% 4.06 mm 0 W/m2
03:44 15.8 °C 14.7 °C 1005 hPa SSW 2.9 km/h 19.3 km/h 93% 3.81 mm 0 W/m2
03:49 15.8 °C 14.7 °C 1005 hPa SSW 4.7 km/h 9.7 km/h 93% 3.56 mm 0 W/m2
03:54 15.8 °C 14.7 °C 1004.6 hPa South 3.4 km/h 11.3 km/h 93% 3.3 mm 0 W/m2
03:59 15.8 °C 14.7 °C 1004.6 hPa South 8 km/h 14.5 km/h 93% 2.79 mm 0 W/m2
04:04 15.8 °C 14.7 °C 1004.3 hPa South 6.1 km/h 20.9 km/h 93% 2.29 mm 0 W/m2
04:09 15.7 °C 14.6 °C 1004.3 hPa South 6 km/h 20.9 km/h 93% 1.52 mm 0 W/m2
04:14 15.7 °C 14.6 °C 1004.3 hPa South 8.7 km/h 17.7 km/h 93% 1.52 mm 0 W/m2
04:19 15.7 °C 14.6 °C 1003.9 hPa SSE 9.2 km/h 20.9 km/h 93% 1.27 mm 0 W/m2
04:24 15.7 °C 14.6 °C 1003.9 hPa SSW 8.7 km/h 20.9 km/h 93% 1.27 mm 0 W/m2
04:29 15.6 °C 14.3 °C 1003.9 hPa SW 5.1 km/h 22.5 km/h 92% 1.27 mm 0 W/m2
04:34 15.6 °C 14.3 °C 1003.9 hPa SW 4 km/h 22.5 km/h 92% 1.27 mm 0 W/m2
04:39 15.5 °C 14.2 °C 1003.9 hPa SW 9.3 km/h 24.1 km/h 92% 1.52 mm 0 W/m2
04:44 15.5 °C 14.2 °C 1003.9 hPa SSW 4.5 km/h 16.1 km/h 92% 1.52 mm 0 W/m2
04:49 15.4 °C 14.1 °C 1003.6 hPa SW 3.1 km/h 12.9 km/h 92% 1.78 mm 0 W/m2
04:54 15.4 °C 14.1 °C 1003.6 hPa SW 3.4 km/h 9.7 km/h 92% 2.29 mm 0 W/m2
04:59 15.4 °C 14.1 °C 1003.6 hPa SSE 7.6 km/h 14.5 km/h 92% 2.79 mm 0 W/m2
05:04 15.4 °C 14.1 °C 1003.3 hPa South 6.4 km/h 20.9 km/h 92% 3.05 mm 0 W/m2
05:09 15.3 °C 14.2 °C 1003.3 hPa SSW 8.7 km/h 20.9 km/h 92.6% 3.56 mm 0 W/m2
05:14 15.3 °C 14.2 °C 1002.9 hPa SSW 7.9 km/h 22.5 km/h 93% 4.32 mm 0 W/m2
05:19 15.2 °C 14.1 °C 1002.9 hPa South 7.2 km/h 22.5 km/h 92.8% 4.57 mm 0 W/m2
05:24 15.2 °C 13.8 °C 1002.6 hPa South 8.5 km/h 16.1 km/h 92% 4.57 mm 0 W/m2
05:29 15.2 °C 13.8 °C 1002.3 hPa South 6.4 km/h 19.3 km/h 92% 4.57 mm 0 W/m2
05:34 15.1 °C 13.8 °C 1001.9 hPa SSW 6.1 km/h 14.5 km/h 92.2% 4.57 mm 0 W/m2
05:39 15.1 °C 14 °C 1001.9 hPa South 8 km/h 19.3 km/h 93% 4.32 mm 0 W/m2
05:44 15.1 °C 14 °C 1001.9 hPa South 6.6 km/h 19.3 km/h 93% 4.32 mm 0 W/m2
05:49 15.1 °C 14 °C 1001.6 hPa SSE 13.8 km/h 30.6 km/h 93% 4.06 mm 0 W/m2
05:54 15.1 °C 13.8 °C 1001.6 hPa South 17.1 km/h 32.2 km/h 92.4% 3.56 mm 0 W/m2
05:59 15 °C 13.7 °C 1001.2 hPa SSW 13 km/h 38.6 km/h 92% 3.05 mm 0 W/m2
06:04 14.9 °C 13.6 °C 1000.9 hPa South 15.8 km/h 38.6 km/h 92% 2.54 mm 0 W/m2
06:09 14.8 °C 13.3 °C 1000.9 hPa SSE 19.6 km/h 37 km/h 91% 2.29 mm 0 W/m2
06:14 14.9 °C 13.4 °C 1000.6 hPa SSE 16.4 km/h 37 km/h 91% 2.03 mm 0 W/m2
06:19 14.9 °C 13.4 °C 1000.6 hPa SSE 13.4 km/h 30.6 km/h 91% 1.52 mm 0 W/m2
06:24 14.9 °C 13.4 °C 1000.2 hPa South 16.7 km/h 35.4 km/h 91% 1.52 mm 0 W/m2
06:29 14.9 °C 13.4 °C 999.9 hPa South 15.4 km/h 32.2 km/h 91% 1.52 mm 0 W/m2
06:34 14.9 °C 13.4 °C 999.9 hPa SSE 10 km/h 25.7 km/h 91% 1.78 mm 0 W/m2
06:39 14.8 °C 13.3 °C 999.9 hPa South 13.2 km/h 27.4 km/h 91% 1.78 mm 0 W/m2
06:44 14.8 °C 13.5 °C 999.5 hPa South 7.6 km/h 25.7 km/h 92% 1.78 mm 0 W/m2
06:49 14.8 °C 13.5 °C 999.5 hPa SSE 10.3 km/h 24.1 km/h 92% 2.29 mm 0 W/m2
06:54 14.9 °C 13.6 °C 999.5 hPa South 10.1 km/h 25.7 km/h 92% 2.29 mm 9 W/m2
06:59 15 °C 13.7 °C 999.2 hPa South 11.9 km/h 29 km/h 92% 2.29 mm 19 W/m2
07:04 15.1 °C 13.8 °C 999.5 hPa SSW 14.8 km/h 37 km/h 92% 2.29 mm 19 W/m2
07:09 15.2 °C 14 °C 999.2 hPa South 17.2 km/h 43.5 km/h 92.4% 2.29 mm 12 W/m2
07:14 15.3 °C 14.2 °C 999.2 hPa South 17.9 km/h 41.8 km/h 93% 2.29 mm 11 W/m2
07:19 15.4 °C 14.2 °C 998.9 hPa South 12.9 km/h 35.4 km/h 92.7% 2.29 mm 23 W/m2
07:24 15.4 °C 14.2 °C 998.9 hPa South 17.7 km/h 27.4 km/h 92.3% 2.03 mm 37 W/m2
07:29 15.4 °C 14.3 °C 998.5 hPa South 15.9 km/h 25.7 km/h 93% 2.03 mm 33 W/m2
07:34 15.6 °C 14.5 °C 998.5 hPa SSW 10.6 km/h 29 km/h 93% 1.78 mm 28 W/m2
07:39 15.7 °C 14.6 °C 998.5 hPa South 12.6 km/h 30.6 km/h 93% 1.52 mm 21 W/m2
07:44 15.7 °C 14.6 °C 998.5 hPa South 17.4 km/h 30.6 km/h 93% 1.52 mm 21 W/m2
07:49 15.8 °C 14.7 °C 998.2 hPa South 13.5 km/h 32.2 km/h 93% 1.52 mm 26 W/m2
07:54 15.8 °C 14.8 °C 998.2 hPa South 12.2 km/h 32.2 km/h 93% 1.27 mm 30 W/m2
07:59 15.9 °C 14.8 °C 998.2 hPa South 13.5 km/h 33.8 km/h 93% 1.02 mm 30 W/m2
08:04 16 °C 14.9 °C 997.9 hPa SSW 10.9 km/h 24.1 km/h 93% 0.76 mm 28 W/m2
08:09 16.1 °C 14.9 °C 997.9 hPa South 6.4 km/h 32.2 km/h 93% 0.76 mm 28 W/m2
08:14 16.1 °C 15 °C 997.9 hPa South 12.6 km/h 27.4 km/h 93% 0.51 mm 26 W/m2
08:19 16.2 °C 15.1 °C 997.9 hPa South 13.5 km/h 27.4 km/h 93% 0.51 mm 23 W/m2
08:24 16.2 °C 15.1 °C 997.9 hPa SSW 8.7 km/h 27.4 km/h 93% 0.51 mm 26 W/m2
08:29 16.3 °C 15.2 °C 997.9 hPa SSW 11.9 km/h 25.7 km/h 93% 0.25 mm 30 W/m2
08:34 16.4 °C 15.1 °C 997.5 hPa South 11.7 km/h 27.4 km/h 92.2% 0.25 mm 35 W/m2
08:39 16.4 °C 15.2 °C 997.5 hPa South 13.5 km/h 37 km/h 92.4% 0.25 mm 39 W/m2
08:44 16.6 °C 15.5 °C 997.5 hPa South 11.3 km/h 40.2 km/h 93% 0.25 mm 40 W/m2
08:49 16.6 °C 15.3 °C 997.5 hPa South 19 km/h 27.4 km/h 92% 0 mm 47 W/m2
08:54 16.7 °C 15.3 °C 997.2 hPa South 14.8 km/h 37 km/h 92% 0.25 mm 72 W/m2
08:59 16.7 °C 15.4 °C 997.2 hPa South 17.7 km/h 33.8 km/h 92% 0.25 mm 120 W/m2
09:04 16.8 °C 15.5 °C 996.8 hPa South 13.8 km/h 35.4 km/h 92% 0.25 mm 118 W/m2
09:09 16.8 °C 15.5 °C 996.8 hPa SSW 11.3 km/h 32.2 km/h 92% 0.25 mm 90 W/m2
09:14 16.9 °C 15.7 °C 996.8 hPa SSW 14.2 km/h 29 km/h 92.8% 0.25 mm 100 W/m2
09:19 16.9 °C 15.8 °C 996.8 hPa SW 14.2 km/h 25.7 km/h 93% 0.25 mm 88 W/m2
09:24 16.9 °C 15.8 °C 996.8 hPa South 7.2 km/h 25.7 km/h 93% 0.25 mm 98 W/m2
09:29 17.1 °C 15.9 °C 996.5 hPa SSW 13.5 km/h 22.5 km/h 93% 0.25 mm 114 W/m2
09:34 17.1 °C 16 °C 996.5 hPa SSW 10 km/h 25.7 km/h 93% 0.25 mm 114 W/m2
09:39 17.2 °C 16.1 °C 996.5 hPa SSW 12.9 km/h 27.4 km/h 93% 0.25 mm 74 W/m2
09:44 17.3 °C 16.1 °C 996.2 hPa South 15.3 km/h 29 km/h 92.5% 0.25 mm 74 W/m2
09:49 17.3 °C 16.2 °C 996.2 hPa SW 11.6 km/h 29 km/h 92.8% 0.25 mm 93 W/m2
09:54 17.4 °C 16.1 °C 996.2 hPa SW 13.5 km/h 35.4 km/h 92% 0.25 mm 104 W/m2
09:59 17.4 °C 16.1 °C 996.2 hPa SSW 19.3 km/h 37 km/h 92% 0 mm 174 W/m2
10:04 17.6 °C 16.2 °C 995.8 hPa SSW 10.9 km/h 27.4 km/h 92% 0 mm 265 W/m2
10:09 17.7 °C 16.4 °C 995.8 hPa SSW 10.5 km/h 30.6 km/h 92% 0 mm 552 W/m2
10:14 17.9 °C 16.7 °C 995.8 hPa SW 13.5 km/h 24.1 km/h 92% 0 mm 345 W/m2
10:19 18.2 °C 16.7 °C 995.8 hPa SW 19 km/h 29 km/h 90.8% 0 mm 717 W/m2
10:24 18.4 °C 16.7 °C 995.5 hPa SSW 13.8 km/h 24.1 km/h 90% 0 mm 413 W/m2
10:29 18.6 °C 16.8 °C 995.8 hPa SW 15.3 km/h 30.6 km/h 89% 0 mm 323 W/m2
10:34 18.7 °C 16.8 °C 995.8 hPa SW 19.6 km/h 43.5 km/h 88.2% 0 mm 680 W/m2
10:39 18.9 °C 16.7 °C 995.8 hPa SW 19.8 km/h 48.3 km/h 86.8% 0 mm 376 W/m2
10:44 19.1 °C 16.4 °C 995.8 hPa SW 17.1 km/h 48.3 km/h 84.8% 0 mm 670 W/m2
10:48 19.2 °C 16.3 °C 995.5 hPa West 21.1 km/h 43.5 km/h 83.5% 0 mm 670 W/m2
10:54 19.3 °C 16.1 °C 995.8 hPa SW 21.4 km/h 38.6 km/h 81.4% 0 mm 603 W/m2
10:59 19.3 °C 16.1 °C 995.5 hPa WSW 19 km/h 45.1 km/h 81% 0 mm 301 W/m2
11:04 19.2 °C 15.9 °C 995.5 hPa WSW 17.2 km/h 33.8 km/h 81% 0 mm 213 W/m2
11:09 19.3 °C 16 °C 995.5 hPa SW 12.6 km/h 33.8 km/h 81.2% 0 mm 274 W/m2
11:14 19.3 °C 16.2 °C 995.8 hPa SW 14.8 km/h 38.6 km/h 81.8% 0 mm 360 W/m2
11:19 19.6 °C 16.1 °C 995.5 hPa WSW 19.6 km/h 43.5 km/h 80% 0 mm 684 W/m2
11:24 19.7 °C 16 °C 995.5 hPa SW 20 km/h 37 km/h 79% 0 mm 684 W/m2
11:29 19.5 °C 15.9 °C 995.5 hPa SW 20.4 km/h 41.8 km/h 79.6% 0 mm 318 W/m2
11:34 19.2 °C 15.6 °C 995.8 hPa WSW 20.6 km/h 41.8 km/h 79.2% 0 mm 253 W/m2
11:38 19.1 °C 15.4 °C 995.8 hPa WSW 16.6 km/h 38.6 km/h 79.3% 0 mm 292 W/m2
11:44 19.2 °C 15.5 °C 995.8 hPa WSW 13.2 km/h 38.6 km/h 79.2% 0 mm 724 W/m2
11:49 19.3 °C 15.4 °C 995.8 hPa West 23.5 km/h 41.8 km/h 77.8% 0 mm 803 W/m2
11:54 19.3 °C 15.3 °C 995.8 hPa West 22.9 km/h 35.4 km/h 78% 0 mm 803 W/m2
11:59 19.1 °C 15.2 °C 995.8 hPa WSW 28.3 km/h 41.8 km/h 77.8% 0 mm 810 W/m2
12:04 19.3 °C 15.2 °C 995.8 hPa WSW 23.8 km/h 49.9 km/h 76.8% 0 mm 1051 W/m2
12:08 19.5 °C 15 °C 995.8 hPa WSW 33.3 km/h 54.7 km/h 75.3% 0 mm 969 W/m2
12:14 19.4 °C 14.9 °C 995.8 hPa WSW 24.5 km/h 54.7 km/h 75.2% 0 mm 457 W/m2
12:19 19.4 °C 15 °C 995.8 hPa West 20.3 km/h 41.8 km/h 75.6% 0 mm 519 W/m2
12:24 19.3 °C 15 °C 995.8 hPa WSW 26.7 km/h 57.9 km/h 76% 0 mm 893 W/m2
12:29 19.5 °C 14.9 °C 995.8 hPa WSW 25.7 km/h 57.9 km/h 75% 0 mm 765 W/m2
12:34 19.7 °C 15.1 °C 995.8 hPa WSW 29.3 km/h 51.5 km/h 74.6% 0 mm 763 W/m2
12:39 19.8 °C 15.1 °C 995.8 hPa West 19.2 km/h 46.7 km/h 74.2% 0 mm 411 W/m2
12:44 19.7 °C 14.7 °C 995.8 hPa West 29.9 km/h 54.7 km/h 73% 0 mm 482 W/m2
12:49 19.7 °C 14.7 °C 995.8 hPa West 24 km/h 53.1 km/h 73% 0 mm 900 W/m2
12:54 19.8 °C 14.8 °C 995.8 hPa WSW 20.8 km/h 40.2 km/h 73% 0 mm 900 W/m2
12:59 19.8 °C 14.8 °C 995.8 hPa WSW 25.4 km/h 46.7 km/h 73% 0 mm 431 W/m2
13:04 19.7 °C 14.8 °C 996.2 hPa West 31.2 km/h 51.5 km/h 73.4% 0 mm 446 W/m2
13:09 19.8 °C 14.8 °C 995.8 hPa West 20.6 km/h 49.9 km/h 73% 0 mm 657 W/m2
13:14 19.9 °C 14.9 °C 996.2 hPa West 23.3 km/h 48.3 km/h 73% 0 mm 441 W/m2
13:19 19.9 °C 14.9 °C 996.2 hPa SW 21.6 km/h 48.3 km/h 73% 0 mm 798 W/m2
13:24 20.1 °C 15.1 °C 996.2 hPa WSW 25.7 km/h 41.8 km/h 72.8% 0 mm 731 W/m2
13:29 20.3 °C 15 °C 996.2 hPa WSW 25.9 km/h 53.1 km/h 71.6% 0 mm 731 W/m2
13:34 20.2 °C 15 °C 996.2 hPa WSW 18.5 km/h 41.8 km/h 72% 0 mm 798 W/m2
13:39 20.3 °C 14.9 °C 996.2 hPa WSW 20.6 km/h 38.6 km/h 71% 0 mm 916 W/m2
13:44 20.4 °C 15 °C 996.2 hPa WSW 28.3 km/h 46.7 km/h 70.8% 0 mm 914 W/m2
13:49 20.5 °C 14.8 °C 996.2 hPa WSW 33.8 km/h 53.1 km/h 69.8% 0 mm 921 W/m2
13:54 20.6 °C 14.8 °C 996.2 hPa WSW 33.2 km/h 57.9 km/h 69.8% 0 mm 812 W/m2
13:59 20.6 °C 14.7 °C 996.2 hPa WSW 32.8 km/h 57.9 km/h 69.2% 0 mm 853 W/m2
14:04 20.4 °C 14.7 °C 996.5 hPa WSW 25.1 km/h 56.3 km/h 69.8% 0 mm 870 W/m2
14:09 20.4 °C 14.7 °C 996.5 hPa WSW 24.1 km/h 56.3 km/h 70% 0 mm 870 W/m2
14:14 20.3 °C 14.9 °C 996.5 hPa West 24.9 km/h 49.9 km/h 71.2% 0 mm 504 W/m2
14:19 20.1 °C 14.9 °C 996.5 hPa West 20.6 km/h 46.7 km/h 72.4% 0 mm 468 W/m2
14:24 20 °C 14.9 °C 996.8 hPa West 22.9 km/h 46.7 km/h 72.8% 0 mm 468 W/m2
14:29 19.9 °C 14.7 °C 996.5 hPa WSW 26.4 km/h 46.7 km/h 71.8% 0 mm 429 W/m2
14:34 19.8 °C 14.2 °C 996.8 hPa West 33.8 km/h 51.5 km/h 70% 0 mm 399 W/m2
14:39 19.8 °C 14.2 °C 996.8 hPa WSW 26.4 km/h 51.5 km/h 69.8% 0 mm 438 W/m2
14:44 19.7 °C 13.9 °C 996.8 hPa WNW 25.6 km/h 45.1 km/h 69.4% 0 mm 352 W/m2
14:48 19.6 °C 14.1 °C 996.8 hPa WNW 27.5 km/h 46.7 km/h 70% 0 mm 322 W/m2
14:54 19.5 °C 13.9 °C 996.8 hPa West 31.9 km/h 53.1 km/h 70% 0 mm 251 W/m2
14:59 19.7 °C 14.1 °C 996.8 hPa West 26.9 km/h 46.7 km/h 70% 0 mm 851 W/m2
15:04 19.9 °C 14.1 °C 996.8 hPa West 30.3 km/h 46.7 km/h 69.4% 0 mm 809 W/m2
15:09 19.7 °C 13.9 °C 996.8 hPa WSW 29.9 km/h 51.5 km/h 69% 0 mm 768 W/m2
15:14 20.1 °C 14.2 °C 996.8 hPa West 17.4 km/h 48.3 km/h 69% 0 mm 744 W/m2
15:19 20.1 °C 13.9 °C 996.8 hPa West 31.5 km/h 51.5 km/h 67.4% 0 mm 879 W/m2
15:24 19.9 °C 13.8 °C 997.2 hPa West 27 km/h 53.1 km/h 68% 0 mm 308 W/m2
15:29 19.7 °C 13.7 °C 997.2 hPa West 25.4 km/h 56.3 km/h 68% 0 mm 322 W/m2
15:34 19.7 °C 13.6 °C 997.5 hPa West 38.9 km/h 61.2 km/h 68.2% 0 mm 287 W/m2
15:39 19.4 °C 13.4 °C 997.5 hPa West 36.4 km/h 66 km/h 68.4% 0 mm 301 W/m2
15:44 19.3 °C 13.5 °C 997.2 hPa West 22.2 km/h 45.1 km/h 69% 0 mm 336 W/m2
15:49 19.4 °C 13.6 °C 997.5 hPa West 29 km/h 51.5 km/h 69% 0 mm 515 W/m2
15:54 19.3 °C 13.6 °C 997.5 hPa WSW 27 km/h 48.3 km/h 69% 0 mm 301 W/m2
15:59 19.2 °C 13.6 °C 997.5 hPa WSW 25.4 km/h 46.7 km/h 69.6% 0 mm 183 W/m2
16:04 18.9 °C 13.7 °C 997.9 hPa WSW 23.2 km/h 45.1 km/h 71.8% 0 mm 304 W/m2
16:09 18.6 °C 13.8 °C 997.9 hPa WSW 28.6 km/h 43.5 km/h 73.6% 0 mm 258 W/m2
16:14 18.6 °C 13.8 °C 997.5 hPa West 26.1 km/h 46.7 km/h 73.6% 0 mm 290 W/m2
16:19 18.4 °C 13.8 °C 997.5 hPa WSW 23.5 km/h 41.8 km/h 74.8% 0 mm 332 W/m2
16:23 18.5 °C 13.7 °C 997.5 hPa West 27.8 km/h 53.1 km/h 73.8% 0 mm 258 W/m2
16:29 18.8 °C 13.9 °C 997.5 hPa WSW 20.6 km/h 37 km/h 73% 0 mm 258 W/m2
16:34 18.5 °C 13.8 °C 997.5 hPa West 24.1 km/h 49.9 km/h 74.2% 0 mm 281 W/m2
16:38 18.4 °C 13.9 °C 997.5 hPa WSW 24.5 km/h 46.7 km/h 75% 0 mm 580 W/m2
16:44 18.6 °C 13.9 °C 997.5 hPa SW 26.4 km/h 49.9 km/h 74.4% 0 mm 580 W/m2
16:49 18.8 °C 13.9 °C 997.5 hPa WSW 22.2 km/h 45.1 km/h 73.4% 0 mm 559 W/m2
16:54 18.7 °C 13.9 °C 997.5 hPa WSW 23.8 km/h 61.2 km/h 73.8% 0 mm 283 W/m2
16:59 18.5 °C 13.8 °C 997.5 hPa WSW 20.6 km/h 46.7 km/h 74% 0 mm 169 W/m2
17:04 18.4 °C 13.7 °C 997.5 hPa WSW 28.3 km/h 48.3 km/h 74% 0 mm 248 W/m2
17:09 18.6 °C 13.7 °C 997.5 hPa West 32.8 km/h 53.1 km/h 73.2% 0 mm 135 W/m2
17:14 18.7 °C 13.8 °C 997.5 hPa SW 20.6 km/h 48.3 km/h 73.4% 0 mm 550 W/m2
17:19 18.8 °C 13.7 °C 997.2 hPa West 34.1 km/h 49.9 km/h 72.4% 0 mm 533 W/m2
17:24 18.7 °C 13.5 °C 997.2 hPa West 22.2 km/h 48.3 km/h 72% 0 mm 199 W/m2
17:29 18.7 °C 13.6 °C 997.2 hPa WSW 29.5 km/h 43.5 km/h 72.2% 0 mm 167 W/m2
17:33 18.7 °C 13.5 °C 997.2 hPa West 27.8 km/h 53.1 km/h 72% 0 mm 230 W/m2
17:39 18.6 °C 13.5 °C 997.2 hPa West 22.5 km/h 53.1 km/h 72% 0 mm 225 W/m2
17:44 18.5 °C 13.4 °C 997.2 hPa WSW 24.9 km/h 51.5 km/h 72.4% 0 mm 125 W/m2
17:49 18.5 °C 13.4 °C 997.2 hPa West 29 km/h 45.1 km/h 72.2% 0 mm 227 W/m2
17:54 18.5 °C 13.4 °C 997.5 hPa WSW 24.3 km/h 43.5 km/h 72.2% 0 mm 139 W/m2
17:59 18.4 °C 13.5 °C 997.5 hPa West 23.3 km/h 41.8 km/h 73% 0 mm 151 W/m2
18:04 18.3 °C 13.4 °C 997.9 hPa WSW 26.7 km/h 51.5 km/h 73% 0 mm 130 W/m2
18:09 18.3 °C 13.2 °C 997.9 hPa West 27.7 km/h 49.9 km/h 72% 0 mm 141 W/m2
18:14 18.2 °C 13.1 °C 997.9 hPa West 23.2 km/h 49.9 km/h 71.8% 0 mm 100 W/m2
18:19 18.2 °C 13.1 °C 997.9 hPa WNW 20.9 km/h 48.3 km/h 72.2% 0 mm 77 W/m2
18:24 18.1 °C 13.2 °C 997.9 hPa West 20.6 km/h 46.7 km/h 73% 0 mm 88 W/m2
18:29 18 °C 13.1 °C 997.9 hPa West 22.2 km/h 40.2 km/h 73% 0 mm 79 W/m2
18:34 17.9 °C 13.1 °C 997.9 hPa West 20.3 km/h 40.2 km/h 73.4% 0 mm 70 W/m2
18:39 17.9 °C 13.1 °C 997.9 hPa WSW 22.7 km/h 46.7 km/h 73.2% 0 mm 49 W/m2
18:44 17.9 °C 13.2 °C 997.9 hPa WSW 26.4 km/h 38.6 km/h 73.8% 0 mm 37 W/m2
18:49 17.8 °C 13.1 °C 997.9 hPa WSW 25.1 km/h 49.9 km/h 73.4% 0 mm 28 W/m2
18:54 17.8 °C 13 °C 998.2 hPa WSW 25.4 km/h 48.3 km/h 73.4% 0 mm 42 W/m2
18:59 17.7 °C 13.1 °C 998.2 hPa WSW 26.4 km/h 43.5 km/h 74% 0 mm 46 W/m2
19:04 17.7 °C 13 °C 998.2 hPa West 25.7 km/h 43.5 km/h 74% 0 mm 28 W/m2
19:09 17.6 °C 12.9 °C 998.2 hPa West 23.8 km/h 57.9 km/h 74% 0 mm 19 W/m2
19:14 17.6 °C 12.9 °C 998.2 hPa WSW 23.3 km/h 43.5 km/h 74.5% 0 mm 16 W/m2
19:19 17.4 °C 12.9 °C 998.5 hPa WSW 13.2 km/h 40.2 km/h 75% 0 mm 9 W/m2
19:24 17.4 °C 12.9 °C 998.5 hPa WSW 24.5 km/h 33.8 km/h 75% 0 mm 7 W/m2
19:29 17.4 °C 12.9 °C 998.5 hPa West 19.6 km/h 37 km/h 75% 0 mm 9 W/m2
19:34 17.4 °C 12.9 °C 998.5 hPa WSW 16.6 km/h 38.6 km/h 75% 0 mm 18 W/m2
19:39 17.3 °C 12.8 °C 998.5 hPa West 15.6 km/h 30.6 km/h 75% 0 mm 9 W/m2
19:44 17.3 °C 12.8 °C 998.5 hPa West 20.6 km/h 45.1 km/h 75% 0 mm 7 W/m2
19:49 17.3 °C 12.8 °C 998.5 hPa West 14.2 km/h 32.2 km/h 75.2% 0 mm 0 W/m2
19:54 17.3 °C 12.9 °C 998.9 hPa West 19.3 km/h 32.2 km/h 75.8% 0 mm 0 W/m2
19:59 16.9 °C 12.9 °C 998.9 hPa WNW 18.5 km/h 38.6 km/h 77.5% 0 mm 0 W/m2
20:04 16.6 °C 12.9 °C 999.2 hPa West 18.7 km/h 45.1 km/h 79% 0.25 mm 0 W/m2
20:09 16.4 °C 12.9 °C 998.9 hPa West 17.4 km/h 45.1 km/h 80% 0.25 mm 0 W/m2
20:14 16.4 °C 12.9 °C 998.9 hPa West 27.4 km/h 35.4 km/h 80% 0.25 mm 0 W/m2
20:19 16.4 °C 13.1 °C 999.2 hPa West 18.7 km/h 38.6 km/h 81% 0.25 mm 0 W/m2
20:24 16.4 °C 13.1 °C 999.2 hPa West 17.7 km/h 40.2 km/h 81% 0.25 mm 0 W/m2
20:29 16.6 °C 13.1 °C 999.2 hPa West 24.1 km/h 48.3 km/h 80.2% 0.25 mm 0 W/m2
20:34 16.8 °C 13.1 °C 999.2 hPa West 27 km/h 51.5 km/h 79% 0.25 mm 0 W/m2
20:39 16.8 °C 13.1 °C 999.5 hPa WNW 18.8 km/h 37 km/h 79% 0.25 mm 0 W/m2
20:44 16.8 °C 13.1 °C 999.5 hPa West 21.7 km/h 41.8 km/h 79% 0.25 mm 0 W/m2
20:49 16.8 °C 12.9 °C 999.5 hPa West 28 km/h 51.5 km/h 78.2% 0.25 mm 0 W/m2
20:54 16.8 °C 12.8 °C 999.5 hPa West 28.3 km/h 57.9 km/h 77.2% 0.25 mm 0 W/m2
20:59 16.9 °C 12.8 °C 999.5 hPa WNW 21.6 km/h 43.5 km/h 77.2% 0.25 mm 0 W/m2
21:04 16.8 °C 12.9 °C 999.9 hPa West 19.6 km/h 41.8 km/h 78% 0.25 mm 0 W/m2
21:09 16.8 °C 12.8 °C 999.9 hPa West 28.3 km/h 51.5 km/h 77.8% 0 mm 0 W/m2
21:14 16.8 °C 12.8 °C 999.9 hPa WNW 27.8 km/h 49.9 km/h 78% 0 mm 0 W/m2
21:19 16.7 °C 12.8 °C 1000.2 hPa WNW 24.1 km/h 45.1 km/h 78% 0 mm 0 W/m2
21:24 16.7 °C 12.8 °C 1000.2 hPa West 21.2 km/h 45.1 km/h 78.6% 0 mm 0 W/m2
21:29 16.5 °C 12.8 °C 1000.2 hPa West 20 km/h 46.7 km/h 79.2% 0 mm 0 W/m2
21:34 16.4 °C 12.9 °C 1000.2 hPa West 27 km/h 46.7 km/h 80% 0 mm 0 W/m2
21:39 16.3 °C 12.9 °C 1000.6 hPa West 24.1 km/h 46.7 km/h 80.4% 0.25 mm 0 W/m2
21:44 16.1 °C 12.9 °C 1000.6 hPa West 23.8 km/h 41.8 km/h 82% 0.25 mm 0 W/m2
21:49 15.8 °C 13 °C 1000.6 hPa West 32.2 km/h 49.9 km/h 83.4% 0.51 mm 0 W/m2
21:54 15.8 °C 13.1 °C 1000.6 hPa NW 34.1 km/h 49.9 km/h 84% 0.51 mm 0 W/m2
21:59 15.7 °C 13.2 °C 1000.9 hPa WNW 22.2 km/h 46.7 km/h 84.6% 0.51 mm 0 W/m2
22:04 15.8 °C 13.1 °C 1000.9 hPa WNW 22.2 km/h 46.7 km/h 84% 0.51 mm 0 W/m2
22:09 15.8 °C 13.1 °C 1001.2 hPa West 33.8 km/h 54.7 km/h 84.2% 0.51 mm 0 W/m2
22:14 15.7 °C 13.2 °C 1001.2 hPa West 18.3 km/h 35.4 km/h 85% 0.51 mm 0 W/m2
22:19 15.6 °C 13.1 °C 1001.2 hPa West 24 km/h 40.2 km/h 85% 0.76 mm 0 W/m2
22:24 15.6 °C 13.1 °C 1001.2 hPa West 20.9 km/h 45.1 km/h 85% 0.76 mm 0 W/m2
22:29 15.6 °C 13.2 °C 1001.2 hPa WNW 14.8 km/h 45.1 km/h 85.4% 0.76 mm 0 W/m2
22:34 15.4 °C 13.1 °C 1001.6 hPa WNW 18 km/h 33.8 km/h 86% 1.02 mm 0 W/m2
22:39 15.4 °C 13.2 °C 1001.6 hPa WNW 26.7 km/h 43.5 km/h 86.6% 1.02 mm 0 W/m2
22:44 15.4 °C 13.2 °C 1001.6 hPa WNW 17.1 km/h 38.6 km/h 87% 0.76 mm 0 W/m2
22:49 15.4 °C 13.2 °C 1001.6 hPa West 22.2 km/h 32.2 km/h 87% 0.51 mm 0 W/m2
22:54 15.4 °C 13.2 °C 1001.9 hPa West 23.5 km/h 45.1 km/h 87% 0.51 mm 0 W/m2
22:59 15.5 °C 13.3 °C 1001.9 hPa West 19.6 km/h 46.7 km/h 86.8% 0.76 mm 0 W/m2
23:04 15.4 °C 13.2 °C 1002.3 hPa West 20.4 km/h 51.5 km/h 87% 0.51 mm 0 W/m2
23:09 15.3 °C 13.1 °C 1002.3 hPa WNW 17.1 km/h 45.1 km/h 87% 0.76 mm 0 W/m2
23:14 15.3 °C 13.2 °C 1002.3 hPa WNW 20.4 km/h 35.4 km/h 87.8% 0.76 mm 0 W/m2
23:19 15.3 °C 13.2 °C 1002.3 hPa West 25.4 km/h 43.5 km/h 87.5% 0.76 mm 0 W/m2
23:24 15.4 °C 13.2 °C 1002.3 hPa WNW 19.2 km/h 37 km/h 87% 0.76 mm 0 W/m2
23:29 15.3 °C 13.1 °C 1002.3 hPa WNW 20 km/h 37 km/h 87% 0.76 mm 0 W/m2
23:34 15.3 °C 13.1 °C 1002.6 hPa WNW 20.8 km/h 37 km/h 87% 0.76 mm 0 W/m2
23:39 15.3 °C 13.1 °C 1002.6 hPa WNW 19.8 km/h 37 km/h 87% 0.51 mm 0 W/m2
23:44 15.3 °C 13.3 °C 1002.6 hPa WNW 23.5 km/h 43.5 km/h 88% 1.02 mm 0 W/m2
23:49 15.2 °C 13.2 °C 1002.6 hPa West 20 km/h 32.2 km/h 88.2% 1.02 mm 0 W/m2
23:53 15.1 °C 13.3 °C 1002.6 hPa WNW 15.3 km/h 32.2 km/h 89% 1.02 mm 0 W/m2
23:59 15.1 °C 13.3 °C 1002.9 hPa West 19.6 km/h 37 km/h 89% 0.76 mm 0 W/m2
Bath Spa Weather
Compliments of Weather Underground - 2 mb